createdAt,value
2019-03-25T00:01:44.698Z,4.30
2019-03-25T00:04:14.848Z,4.33
2019-03-25T00:06:45.208Z,4.17
2019-03-25T00:09:15.101Z,3.73
2019-03-25T00:11:45.532Z,4.80
2019-03-25T00:14:15.956Z,4.00
2019-03-25T00:16:45.834Z,4.83
2019-03-25T00:19:16.469Z,4.90
2019-03-25T00:21:46.273Z,4.33
2019-03-25T00:24:16.336Z,5.40
2019-03-25T00:26:46.658Z,5.23
2019-03-25T00:29:16.367Z,5.03
2019-03-25T00:31:46.113Z,5.50
2019-03-25T00:34:16.320Z,4.87
2019-03-25T00:36:47.408Z,4.50
2019-03-25T00:39:17.773Z,5.77
2019-03-25T00:41:47.864Z,4.77
2019-03-25T00:44:19.088Z,5.00
2019-03-25T00:46:50.720Z,5.00
2019-03-25T00:49:21.001Z,5.00
2019-03-25T00:51:52.188Z,4.97
2019-03-25T00:54:21.828Z,5.70
2019-03-25T00:56:52.002Z,4.87
2019-03-25T00:59:22.054Z,4.57
2019-03-25T01:01:51.837Z,4.53
2019-03-25T01:04:23.030Z,4.60
2019-03-25T01:06:54.204Z,4.27
2019-03-25T01:09:23.862Z,4.93
2019-03-25T01:11:53.514Z,4.43
2019-03-25T01:14:23.228Z,4.67
2019-03-25T01:16:52.923Z,4.17
2019-03-25T01:19:23.630Z,3.43
2019-03-25T01:21:53.367Z,3.97
2019-03-25T01:24:23.622Z,3.77
2019-03-25T01:26:54.123Z,4.53
2019-03-25T01:29:23.972Z,3.40
2019-03-25T01:31:54.236Z,4.47
2019-03-25T01:34:25.417Z,3.63
2019-03-25T01:36:55.052Z,3.60
2019-03-25T01:39:24.769Z,4.33
2019-03-25T01:41:55.922Z,4.80
2019-03-25T01:44:25.611Z,4.33
2019-03-25T01:46:55.365Z,4.50
2019-03-25T01:49:25.528Z,4.77
2019-03-25T01:51:56.611Z,4.53
2019-03-25T01:54:26.998Z,3.90
2019-03-25T01:56:57.250Z,4.17
2019-03-25T01:59:26.887Z,4.33
2019-03-25T02:01:56.506Z,4.63
2019-03-25T02:04:26.330Z,3.90
2019-03-25T02:06:56.152Z,4.30
2019-03-25T02:09:26.452Z,4.70
2019-03-25T02:11:56.257Z,4.03
2019-03-25T02:14:26.518Z,4.43
2019-03-25T02:16:56.396Z,4.17
2019-03-25T02:19:29.259Z,4.10
2019-03-25T02:21:58.947Z,4.43
2019-03-25T02:24:29.372Z,4.90
2019-03-25T02:26:59.093Z,5.40
2019-03-25T02:29:29.251Z,4.57
2019-03-25T02:31:58.902Z,4.70
2019-03-25T02:34:30.066Z,4.90
2019-03-25T02:36:59.738Z,4.10
2019-03-25T02:39:29.877Z,4.77
2019-03-25T02:41:59.696Z,4.87
2019-03-25T02:44:29.814Z,3.87
2019-03-25T02:46:59.542Z,3.83
2019-03-25T02:49:29.191Z,4.57
2019-03-25T02:51:58.928Z,4.37
2019-03-25T02:54:28.668Z,4.60
2019-03-25T02:56:58.343Z,4.57
2019-03-25T02:59:28.504Z,4.40
2019-03-25T03:01:58.431Z,4.73
2019-03-25T03:04:28.544Z,4.50
2019-03-25T03:06:58.404Z,4.90
2019-03-25T03:09:29.563Z,4.83
2019-03-25T03:12:03.027Z,5.43
2019-03-25T03:14:32.687Z,4.40
2019-03-25T03:17:02.447Z,4.90
2019-03-25T03:19:32.558Z,4.30
2019-03-25T03:22:03.929Z,4.80
2019-03-25T03:24:33.561Z,5.17
2019-03-25T03:27:03.243Z,4.93
2019-03-25T03:29:33.498Z,5.17
2019-03-25T03:32:03.179Z,4.97
2019-03-25T03:34:33.440Z,5.67
2019-03-25T03:37:03.924Z,5.87
2019-03-25T03:39:33.708Z,4.80
2019-03-25T03:42:03.838Z,4.43
2019-03-25T03:44:33.587Z,3.47
2019-03-25T03:47:03.338Z,3.13
2019-03-25T03:49:33.053Z,3.20
2019-03-25T03:52:02.857Z,1.97
2019-03-25T03:54:32.886Z,2.17
2019-03-25T03:57:04.533Z,2.23
2019-03-25T03:59:34.456Z,2.23
2019-03-25T04:02:04.088Z,2.03
2019-03-25T04:04:33.747Z,2.00
2019-03-25T04:07:03.503Z,1.93
2019-03-25T04:09:33.154Z,1.70
2019-03-25T04:12:03.709Z,2.57
2019-03-25T04:14:33.987Z,1.83
2019-03-25T04:17:03.557Z,2.07
2019-03-25T04:19:33.493Z,2.00
2019-03-25T04:22:03.232Z,1.80
2019-03-25T04:24:33.376Z,1.43
2019-03-25T04:27:03.078Z,1.47
2019-03-25T04:29:32.906Z,1.30
2019-03-25T04:32:05.964Z,1.73
2019-03-25T04:34:34.577Z,1.27
2019-03-25T04:37:05.800Z,1.13
2019-03-25T04:39:36.541Z,1.23
2019-03-25T04:42:06.297Z,1.27
2019-03-25T04:44:36.016Z,1.40
2019-03-25T04:47:05.881Z,1.70
2019-03-25T04:49:36.023Z,1.43
2019-03-25T04:52:06.336Z,1.40
2019-03-25T04:54:36.674Z,1.60
2019-03-25T04:57:06.849Z,1.70
2019-03-25T04:59:37.587Z,1.50
2019-03-25T05:02:07.242Z,1.90
2019-03-25T05:04:37.321Z,1.60
2019-03-25T05:07:07.247Z,1.73
2019-03-25T05:09:37.356Z,1.67
2019-03-25T05:12:07.701Z,1.40
2019-03-25T05:14:38.628Z,1.70
2019-03-25T05:17:11.410Z,1.40
2019-03-25T05:19:41.392Z,1.60
2019-03-25T05:22:13.453Z,1.90
2019-03-25T05:25:23.271Z,1.70
2019-03-25T05:27:53.596Z,1.83
2019-03-25T05:30:29.113Z,1.60
2019-03-25T05:33:02.587Z,2.03
2019-03-25T05:35:32.226Z,1.80
2019-03-25T05:38:01.896Z,1.93
2019-03-25T05:40:31.645Z,1.30
2019-03-25T05:43:01.327Z,1.30
2019-03-25T05:45:31.095Z,2.00
2019-03-25T05:48:00.631Z,1.70
2019-03-25T05:50:30.360Z,1.67
2019-03-25T05:53:00.030Z,1.67
2019-03-25T05:55:29.824Z,1.70
2019-03-25T05:58:00.250Z,1.77
2019-03-25T06:00:35.857Z,2.00
2019-03-25T06:03:05.645Z,1.50
2019-03-25T06:05:35.942Z,1.70
2019-03-25T06:08:07.062Z,1.80
2019-03-25T06:10:37.041Z,2.10
2019-03-25T06:13:06.643Z,1.47
2019-03-25T06:15:36.446Z,1.20
2019-03-25T06:18:06.030Z,1.40
2019-03-25T06:20:36.914Z,1.47
2019-03-25T06:23:06.746Z,1.33
2019-03-25T06:25:36.392Z,1.47
2019-03-25T06:28:06.062Z,1.07
2019-03-25T06:30:35.725Z,1.20
2019-03-25T06:33:12.381Z,1.83
2019-03-25T06:35:37.371Z,1.63
2019-03-25T06:38:07.305Z,1.27
2019-03-25T06:40:37.042Z,1.00
2019-03-25T06:43:06.644Z,1.10
2019-03-25T06:45:37.806Z,1.57
2019-03-25T06:48:07.732Z,1.37
2019-03-25T06:50:39.151Z,1.27
2019-03-25T06:53:10.555Z,1.70
2019-03-25T06:55:40.881Z,1.70
2019-03-25T06:58:11.106Z,1.50
2019-03-25T07:00:41.036Z,1.40
2019-03-25T07:03:11.460Z,1.70
2019-03-25T07:05:44.016Z,1.40
2019-03-25T07:08:13.741Z,1.83
2019-03-25T07:10:43.785Z,1.23
2019-03-25T07:13:13.500Z,1.57
2019-03-25T07:15:44.509Z,1.30
2019-03-25T07:18:14.920Z,1.53
2019-03-25T07:20:44.792Z,1.67
2019-03-25T07:23:14.515Z,1.40
2019-03-25T07:25:45.830Z,2.00
2019-03-25T07:28:15.590Z,1.80
2019-03-25T07:30:45.541Z,2.47
2019-03-25T07:33:15.211Z,1.60
2019-03-25T07:35:47.789Z,1.90
2019-03-25T07:38:17.499Z,1.83
2019-03-25T07:40:49.015Z,1.77
2019-03-25T07:43:20.497Z,2.00
2019-03-25T07:45:51.207Z,1.20
2019-03-25T07:48:23.712Z,1.63
2019-03-25T07:50:53.610Z,1.90
2019-03-25T07:53:23.695Z,1.80
2019-03-25T07:55:55.109Z,2.40
2019-03-25T07:58:25.365Z,2.50
2019-03-25T08:00:55.477Z,1.90
2019-03-25T08:03:28.094Z,2.00
2019-03-25T08:05:59.402Z,1.90
2019-03-25T08:08:29.120Z,2.83
2019-03-25T08:10:59.188Z,1.60
2019-03-25T08:13:28.955Z,2.00
2019-03-25T08:15:58.615Z,1.90
2019-03-25T08:18:28.417Z,1.90
2019-03-25T08:20:58.476Z,2.00
2019-03-25T08:23:28.216Z,1.87
2019-03-25T08:25:58.950Z,1.03
2019-03-25T08:28:28.699Z,0.83
2019-03-25T08:30:58.404Z,1.37
2019-03-25T08:33:28.140Z,1.00
2019-03-25T08:35:57.863Z,1.27
2019-03-25T08:38:29.090Z,1.17
2019-03-25T08:40:58.755Z,1.03
2019-03-25T08:43:28.508Z,1.20
2019-03-25T08:46:01.453Z,1.30
2019-03-25T08:48:31.220Z,1.17
2019-03-25T08:51:02.421Z,1.60
2019-03-25T08:53:33.609Z,1.23
2019-03-25T08:56:03.981Z,1.60
2019-03-25T08:58:33.724Z,1.90
2019-03-25T09:01:03.821Z,2.10
2019-03-25T09:03:33.381Z,1.47
2019-03-25T09:06:04.692Z,1.73
2019-03-25T09:08:36.405Z,1.60
2019-03-25T09:11:07.206Z,1.53
2019-03-25T09:13:38.394Z,1.30
2019-03-25T09:16:08.219Z,1.90
2019-03-25T09:18:37.963Z,1.63
2019-03-25T09:21:07.763Z,1.63
2019-03-25T09:23:37.898Z,2.10
2019-03-25T09:26:07.674Z,2.00
2019-03-25T09:28:39.074Z,2.10
2019-03-25T09:31:12.516Z,1.53
2019-03-25T09:33:42.676Z,1.70
2019-03-25T09:36:12.534Z,2.20
2019-03-25T09:38:42.966Z,2.23
2019-03-25T09:41:12.777Z,1.90
2019-03-25T09:43:42.473Z,1.47
2019-03-25T09:46:12.270Z,1.30
2019-03-25T09:48:41.910Z,0.83
2019-03-25T09:51:11.828Z,1.10
2019-03-25T09:53:41.931Z,1.43
2019-03-25T09:56:11.949Z,1.07
2019-03-25T09:58:43.136Z,1.03
2019-03-25T10:01:32.359Z,1.50
2019-03-25T10:04:02.001Z,1.33
2019-03-25T10:06:31.672Z,1.23
2019-03-25T10:09:02.121Z,1.30
2019-03-25T10:11:31.783Z,1.53
2019-03-25T10:14:01.833Z,1.30
2019-03-25T10:16:31.570Z,1.40
2019-03-25T10:19:01.793Z,1.43
2019-03-25T10:21:31.551Z,1.40
2019-03-25T10:24:01.729Z,0.87
2019-03-25T10:26:31.318Z,1.40
2019-03-25T10:29:01.223Z,1.33
2019-03-25T10:31:30.875Z,1.30
2019-03-25T10:34:00.621Z,1.77
2019-03-25T10:36:31.659Z,1.10
2019-03-25T10:39:01.993Z,1.10
2019-03-25T10:41:31.510Z,0.97
2019-03-25T10:44:01.525Z,1.03
2019-03-25T10:46:31.243Z,1.07
2019-03-25T10:49:02.599Z,1.30
2019-03-25T10:51:33.319Z,1.10
2019-03-25T10:54:03.134Z,0.90
2019-03-25T10:56:32.845Z,1.90
2019-03-25T10:59:02.853Z,1.30
2019-03-25T11:01:32.894Z,1.73
2019-03-25T11:04:04.301Z,1.13
2019-03-25T11:06:34.008Z,1.10
2019-03-25T11:09:04.840Z,1.40
2019-03-25T11:11:34.624Z,1.03
2019-03-25T11:14:06.005Z,0.87
2019-03-25T11:16:35.729Z,1.07
2019-03-25T11:19:05.423Z,1.07
2019-03-25T11:21:35.241Z,0.80
2019-03-25T11:24:05.084Z,1.00
2019-03-25T11:26:36.165Z,1.10
2019-03-25T11:29:08.595Z,1.40
2019-03-25T11:31:37.625Z,1.30
2019-03-25T11:34:07.567Z,1.20
2019-03-25T11:36:37.588Z,1.53
2019-03-25T11:39:09.479Z,1.53
2019-03-25T11:41:39.223Z,1.33
2019-03-25T11:44:09.469Z,1.20
2019-03-25T11:46:40.532Z,1.60
2019-03-25T11:49:13.162Z,1.10
2019-03-25T11:51:42.909Z,1.23
2019-03-25T11:54:12.752Z,1.60
2019-03-25T11:56:42.502Z,1.50
2019-03-25T11:59:18.554Z,1.50
2019-03-25T12:01:45.204Z,1.30
2019-03-25T12:04:16.313Z,1.27
2019-03-25T12:06:46.009Z,1.93
2019-03-25T12:09:15.675Z,2.00
2019-03-25T12:11:45.410Z,1.90
2019-03-25T12:14:15.154Z,2.23
2019-03-25T12:16:44.927Z,1.20
2019-03-25T12:19:14.589Z,1.70
2019-03-25T12:21:44.524Z,1.30
2019-03-25T12:24:14.277Z,1.70
2019-03-25T12:26:43.923Z,0.97
2019-03-25T12:29:13.693Z,2.13
2019-03-25T12:31:43.718Z,1.90
2019-03-25T12:34:13.516Z,1.70
2019-03-25T12:36:43.285Z,1.07
2019-03-25T12:39:14.199Z,1.37
2019-03-25T12:41:43.930Z,2.27
2019-03-25T12:44:15.266Z,1.40
2019-03-25T12:46:45.195Z,1.27
2019-03-25T12:49:14.974Z,1.07
2019-03-25T12:51:44.579Z,1.00
2019-03-25T12:54:14.850Z,1.20
2019-03-25T12:56:44.595Z,1.00
2019-03-25T12:59:14.882Z,0.80
2019-03-25T13:01:52.972Z,0.73
2019-03-25T13:04:16.247Z,0.97
2019-03-25T13:06:45.953Z,2.10
2019-03-25T13:09:15.681Z,1.30
2019-03-25T13:11:45.385Z,1.13
2019-03-25T13:14:15.405Z,1.10
2019-03-25T13:16:45.191Z,1.23
2019-03-25T13:19:15.922Z,0.90
2019-03-25T13:21:45.647Z,1.30
2019-03-25T13:24:15.398Z,1.20
2019-03-25T13:26:45.263Z,1.30
2019-03-25T13:29:15.237Z,1.47
2019-03-25T13:31:44.877Z,1.77
2019-03-25T13:34:14.674Z,1.07
2019-03-25T13:36:44.334Z,0.60
2019-03-25T13:39:14.317Z,1.00
2019-03-25T13:41:44.172Z,0.60
2019-03-25T13:44:14.104Z,0.50
2019-03-25T13:46:43.742Z,0.57
2019-03-25T13:49:13.340Z,0.40
2019-03-25T13:51:43.945Z,0.80
2019-03-25T13:54:13.611Z,1.00
2019-03-25T13:56:43.426Z,0.60
2019-03-25T13:59:13.185Z,0.60
2019-03-25T14:01:42.837Z,0.50
2019-03-25T14:04:12.574Z,0.50
2019-03-25T14:06:42.354Z,0.77
2019-03-25T14:09:11.926Z,0.83
2019-03-25T14:11:41.765Z,0.70
2019-03-25T14:14:11.987Z,0.80
2019-03-25T14:16:42.329Z,0.67
2019-03-25T14:19:11.990Z,1.23
2019-03-25T14:21:41.628Z,0.90
2019-03-25T14:24:11.306Z,1.10
2019-03-25T14:26:41.440Z,1.20
2019-03-25T14:29:11.169Z,1.83
2019-03-25T14:31:40.951Z,1.10
2019-03-25T14:34:10.892Z,1.70
2019-03-25T14:36:40.787Z,1.27
2019-03-25T14:39:10.447Z,0.80
2019-03-25T14:41:40.267Z,0.70
2019-03-25T14:44:09.994Z,1.07
2019-03-25T14:46:39.922Z,0.70
2019-03-25T14:49:09.960Z,0.97
2019-03-25T14:51:39.656Z,0.70
2019-03-25T14:54:09.435Z,0.83
2019-03-25T14:56:39.168Z,0.53
2019-03-25T14:59:08.923Z,0.90
2019-03-25T15:01:38.837Z,0.70
2019-03-25T15:04:08.632Z,0.90
2019-03-25T15:06:39.530Z,0.70
2019-03-25T15:09:09.526Z,0.67
2019-03-25T15:11:39.186Z,0.80
2019-03-25T15:14:09.125Z,1.00
2019-03-25T15:16:39.116Z,1.40
2019-03-25T15:19:28.373Z,0.93
2019-03-25T15:21:58.304Z,0.73
2019-03-25T15:24:28.161Z,0.93
2019-03-25T15:26:58.744Z,0.80
2019-03-25T15:29:28.799Z,0.90
2019-03-25T15:31:58.451Z,0.80
2019-03-25T15:34:29.435Z,0.90
2019-03-25T15:36:59.238Z,0.60
2019-03-25T15:39:29.150Z,0.97
2019-03-25T15:41:59.019Z,1.27
2019-03-25T15:44:28.786Z,1.33
2019-03-25T15:46:58.415Z,1.13
2019-03-25T15:49:28.374Z,1.40
2019-03-25T15:51:57.932Z,1.23
2019-03-25T15:54:28.050Z,1.13
2019-03-25T15:57:16.974Z,1.70
2019-03-25T15:59:46.760Z,1.00
2019-03-25T16:02:16.612Z,1.30
2019-03-25T16:04:46.287Z,1.67
2019-03-25T16:07:16.116Z,1.63
2019-03-25T16:09:45.816Z,2.20
2019-03-25T16:12:15.573Z,1.40
2019-03-25T16:14:45.268Z,1.67
2019-03-25T16:17:15.064Z,1.50
2019-03-25T16:19:44.727Z,1.80
2019-03-25T16:22:14.483Z,1.67
2019-03-25T16:24:44.196Z,1.53
2019-03-25T16:27:13.940Z,1.40
2019-03-25T16:29:43.593Z,1.50
2019-03-25T16:32:13.642Z,1.17
2019-03-25T16:34:43.420Z,1.43
2019-03-25T16:37:13.081Z,1.60
2019-03-25T16:39:42.832Z,1.70
2019-03-25T16:42:12.611Z,1.43
2019-03-25T16:44:42.402Z,1.50
2019-03-25T16:47:12.121Z,1.37
2019-03-25T16:49:42.127Z,2.10
2019-03-25T16:52:11.936Z,1.40
2019-03-25T16:54:41.709Z,1.73
2019-03-25T16:57:11.351Z,1.80
2019-03-25T16:59:41.038Z,1.40
2019-03-25T17:02:11.003Z,1.63
2019-03-25T17:04:41.102Z,1.87
2019-03-25T17:07:10.994Z,2.17
2019-03-25T17:09:40.703Z,5.50
2019-03-25T17:12:10.581Z,2.90
2019-03-25T17:14:40.354Z,2.23
2019-03-25T17:17:10.144Z,3.23
2019-03-25T17:19:39.821Z,1.80
2019-03-25T17:22:09.482Z,2.03
2019-03-25T17:24:39.246Z,2.30
2019-03-25T17:27:09.062Z,1.87
2019-03-25T17:29:39.105Z,2.63
2019-03-25T17:32:08.759Z,2.27
2019-03-25T17:34:38.538Z,2.20
2019-03-25T17:37:08.316Z,2.47
2019-03-25T17:39:37.852Z,2.40
2019-03-25T17:42:07.480Z,2.57
2019-03-25T17:44:37.546Z,2.70
2019-03-25T17:47:07.504Z,1.90
2019-03-25T17:49:37.573Z,2.40
2019-03-25T17:52:26.838Z,2.13
2019-03-25T17:54:56.527Z,2.87
2019-03-25T17:57:26.453Z,2.80
2019-03-25T17:59:56.278Z,2.70
2019-03-25T18:02:26.463Z,3.20
2019-03-25T18:04:56.499Z,2.87
2019-03-25T18:07:26.381Z,2.53
2019-03-25T18:09:56.097Z,2.37
2019-03-25T18:12:25.925Z,2.67
2019-03-25T18:14:55.742Z,2.17
2019-03-25T18:17:25.643Z,2.57
2019-03-25T18:19:56.098Z,2.73
2019-03-25T18:22:26.151Z,2.57
2019-03-25T18:24:55.908Z,2.30
2019-03-25T18:27:25.673Z,2.70
2019-03-25T18:29:55.382Z,2.60
2019-03-25T18:32:25.055Z,2.53
2019-03-25T18:34:54.855Z,3.00
2019-03-25T18:37:24.762Z,2.90
2019-03-25T18:39:54.345Z,2.40
2019-03-25T18:42:24.587Z,3.33
2019-03-25T18:44:54.262Z,2.43
2019-03-25T18:47:24.081Z,2.47
2019-03-25T18:49:53.736Z,2.13
2019-03-25T18:52:23.511Z,2.73
2019-03-25T18:54:54.880Z,1.73
2019-03-25T18:57:24.802Z,2.00
2019-03-25T18:59:54.749Z,2.50
2019-03-25T19:02:24.700Z,2.97
2019-03-25T19:04:54.521Z,2.07
2019-03-25T19:07:29.060Z,2.73
2019-03-25T19:09:59.066Z,2.30
2019-03-25T19:12:29.772Z,2.50
2019-03-25T19:15:02.858Z,2.37
2019-03-25T19:17:32.368Z,2.47
2019-03-25T19:20:02.133Z,2.43
2019-03-25T19:22:31.953Z,2.40
2019-03-25T19:25:01.740Z,2.37
2019-03-25T19:27:31.492Z,2.30
2019-03-25T19:30:03.194Z,1.93
2019-03-25T19:32:32.975Z,2.40
2019-03-25T19:35:02.894Z,1.80
2019-03-25T19:37:32.816Z,2.50
2019-03-25T19:40:02.702Z,2.03
2019-03-25T19:42:32.534Z,1.80
2019-03-25T19:45:02.322Z,1.70
2019-03-25T19:47:31.978Z,2.47
2019-03-25T19:50:01.870Z,1.80
2019-03-25T19:52:31.581Z,2.50
2019-03-25T19:55:01.321Z,2.43
2019-03-25T19:57:31.425Z,1.87
2019-03-25T20:00:01.318Z,2.20
2019-03-25T20:02:31.100Z,2.70
2019-03-25T20:05:00.989Z,2.40
2019-03-25T20:07:30.770Z,2.63
2019-03-25T20:10:07.587Z,2.40
2019-03-25T20:12:37.387Z,2.30
2019-03-25T20:15:09.453Z,2.67
2019-03-25T20:17:39.315Z,2.33
2019-03-25T20:20:09.327Z,2.47
2019-03-25T20:22:40.674Z,3.23
2019-03-25T20:25:10.765Z,2.50
2019-03-25T20:27:40.778Z,3.00
2019-03-25T20:30:13.752Z,2.57
2019-03-25T20:32:45.180Z,3.27
2019-03-25T20:35:15.827Z,2.60
2019-03-25T20:37:47.968Z,2.87
2019-03-25T20:40:18.284Z,2.30
2019-03-25T20:42:50.801Z,2.47
2019-03-25T20:45:21.390Z,2.93
2019-03-25T20:47:51.657Z,3.07
2019-03-25T20:50:21.556Z,2.60
2019-03-25T20:52:52.432Z,3.00
2019-03-25T20:55:23.558Z,2.53
2019-03-25T20:57:53.349Z,2.73
2019-03-25T21:00:36.080Z,3.43
2019-03-25T21:03:06.185Z,2.57
2019-03-25T21:05:35.883Z,3.50
2019-03-25T21:08:05.779Z,2.77
2019-03-25T21:10:35.780Z,3.63
2019-03-25T21:13:06.183Z,3.10
2019-03-25T21:15:35.995Z,3.43
2019-03-25T21:18:06.308Z,2.90
2019-03-25T21:20:36.117Z,3.17
2019-03-25T21:23:05.891Z,2.57
2019-03-25T21:25:35.552Z,3.30
2019-03-25T21:28:05.418Z,3.37
2019-03-25T21:30:47.305Z,3.13
2019-03-25T21:33:06.926Z,3.50
2019-03-25T21:35:36.798Z,4.00
2019-03-25T21:38:06.781Z,3.57
2019-03-25T21:40:37.056Z,4.57
2019-03-25T21:43:07.133Z,3.57
2019-03-25T21:45:56.766Z,3.93
2019-03-25T21:48:26.562Z,3.80
2019-03-25T21:50:56.508Z,4.77
2019-03-25T21:53:26.233Z,4.40
2019-03-25T21:55:56.174Z,4.63
2019-03-25T21:58:26.020Z,4.53
2019-03-25T22:00:56.340Z,4.23
2019-03-25T22:03:26.534Z,4.53
2019-03-25T22:05:56.458Z,4.83
2019-03-25T22:08:26.440Z,4.10
2019-03-25T22:10:56.250Z,4.13
2019-03-25T22:13:26.032Z,4.37
2019-03-25T22:15:56.300Z,4.40
2019-03-25T22:18:26.197Z,5.00
2019-03-25T22:20:56.548Z,4.73
2019-03-25T22:23:26.361Z,4.93
2019-03-25T22:25:56.428Z,4.67
2019-03-25T22:28:26.170Z,4.97
2019-03-25T22:30:55.949Z,4.43
2019-03-25T22:33:26.391Z,4.70
2019-03-25T22:35:56.223Z,4.30
2019-03-25T22:38:25.933Z,4.30
2019-03-25T22:40:55.908Z,3.80
2019-03-25T22:43:25.589Z,4.90
2019-03-25T22:48:46.808Z,3.60
2019-03-25T22:51:16.403Z,4.23
2019-03-25T22:53:46.131Z,4.43
2019-03-25T22:56:15.793Z,4.03
2019-03-25T22:58:45.506Z,5.07
2019-03-25T23:01:15.267Z,3.87
2019-03-25T23:03:45.030Z,4.97
2019-03-25T23:06:14.740Z,4.10
2019-03-25T23:08:44.809Z,3.80
2019-03-25T23:11:14.562Z,4.77
2019-03-25T23:13:44.356Z,4.40
2019-03-25T23:40:41.158Z,3.93
2019-03-25T23:43:10.687Z,3.87
2019-03-25T23:45:40.317Z,4.33
2019-03-25T23:48:09.964Z,3.97
2019-03-25T23:50:39.661Z,3.60
2019-03-25T23:53:09.466Z,3.67
2019-03-25T23:55:39.127Z,3.13
2019-03-25T23:58:08.788Z,3.90
